Ksar Chellala, Algérie

19:01 CET le 20 septembre 2014 (GMT +0100)
A. Boussouf Ain Bouchekif | Change Station
CLOSE
Current Station
Aéroport
Location: Tiaret,
Altitude: 3245 ft
Stations météo à proximité

Alt. 3245 ft 35.34 °N, 1.46 °E | Updated 1 hour ago

Low Drifting Sand
Chasse-sable bas
84 ° F
Paraît 84 ° F
N
23
Vent Variable Vent de OSO

Aujourd'hui
Haut(e) -- | Bas -- ° F
--% Risque de précip.
Hier
Haut(e) -- | Bas -- ° F
Precip. -- pouce
6:37 AM 6:50 PM
Lune descendante, 11% visible
Pression 30.24 pouce
Visibilité 3.1 Miles terrestres
Nuages Peu 2300 ft
Nuages épars 9300 ft
Point de rosée 46 ° F
Humidité 27%
Précipitations 0.00 pouce
Profondeur de la couche neigeuse Non disponible.
UV 0 sur 12
Pollen Non disponible.
Qualité de l'air Non disponible.
Flu Activity Non disponible.
METAR DAOB 201700Z 25020KT 5000 DRSA FEW023CB SCT093 29/08 Q1024

More Conditions Fewer Conditions

Pression 30.24 pouce
Visibilité 3.1 Miles terrestres
Nuages Peu 2300 ft
Nuages épars 9300 ft
Point de rosée 46 ° F
Humidité 27%
Précipitations 0.00 pouce
Profondeur de la couche neigeuse Non disponible.
UV 0 sur 12
Pollen Non disponible.
Qualité de l'air Non disponible.
Flu Activity Non disponible.
METAR DAOB 201700Z 25020KT 5000 DRSA FEW023CB SCT093 29/08 Q1024

More Conditions Fewer Conditions

10-Day Weather Forecast

Almanac

Astronomie

Sep. 20, 2014 Lever Coucher
Temps réel 06:37 CET 18:50 CET
Crépuscule civil 06:11 CET 19:16 CET
Crépuscule nautique 05:42 CET 19:45 CET
Crépuscule astronomique 05:11 CET 20:15 CET
Lune 03:08 CET 16:40 CET
Durée de lumière visible 13h 04m
Longueur du jour
12h 13m
Tomorrow will be 2m 12s shorter.
Lune descendante, 11% of the Moon is Illuminated
Aujourd'hui
Lune descendante
Sep 24
Nouveau
Oct 1
Premier quartier
Oct 8
Pleine lune
Oct 15
Dernier quartier

Extrêmes aujourd'hui

Country Highs Country Lows

Community

WunderPhotos

Upload Photos

1,754,921 Photos téléchargées !

WunderBlogs® & News

Nearby

Qualité de l'air

Not available.

Épaisseur de neige

Not available.

Activité sismique

Ville Distance Mag. Time & Date
No recent earthquake activity has been reported nearby.
Minimum magnitude displayed is 2.5.

Températures des eaux côtières

Lieu Température
Aucun rapport de station

Stations météo à proximité